CheckWX is a tool to help pilots better visualize weather data.  It is not intended as a substitute for an official pre-flight weather briefing.

23:51:50 UTC

KVPS METAR
Eglin AFB / Destin-Ft Walton Beach Airport
Valparaiso/Destin-Ft Walton Beach, Florida, USA
Current

16 mins ago

KVPS 242336Z AUTO 23006KT 4SM -RA BR FEW003 FEW008 SCT017 OVC027 18/18 A2984 RMK AO2 CIG 003 RWY01 CIG 023 RWY19 CIG 003 RWY30 SLP111 $
Observed
Feb-24 @ 23:36 UTC
Wind
  • 230° at 6 KTS
Visibility
4 SM
Flight Rules
MVFR
Conditions
Light Rain, Mist
Cloud Levels
  • Few at 300' AGL
  • Few at 800' AGL
  • Scattered at 1,700' AGL
  • Overcast at 2,700' AGL
Temperature
18°C / 64°F
Dewpoint
18°C / 64°F
Humidity
100%
Altimeter
29.84" Hg
Pressure
1010.52 hPa
Previous

26 mins ago

KVPS 242326Z 24009G19KT 1 5/8SM +RA BR FEW003 BKN008 18/18 A2984 RMK AO2A VIS 1V1 7/8 VIS 1 RWY19 SLP111 $
Observed
Feb-24 @ 23:26 UTC
Wind
  • 240° at 9 KTS
  • Gusting to 19 KTS
Visibility
1.63 SM
Flight Rules
IFR
Conditions
Heavy Rain, Mist
Cloud Levels
  • Few at 300' AGL
  • Broken at 800' AGL
Temperature
18°C / 64°F
Dewpoint
18°C / 64°F
Humidity
100%
Altimeter
29.84" Hg
Pressure
1010.52 hPa
Previous

31 mins ago

KVPS 242321Z AUTO 25012G19KT 1SM R12/5500VP6000FT +RA BR FEW002 SCT008 OVC020 18/18 A2984 RMK AO2 VIS 1V3 CIG 009V020 CIG 003 RWY01 CIG 003 RWY30 SLP111 $
Observed
Feb-24 @ 23:21 UTC
Wind
  • 250° at 12 KTS
  • Gusting to 19 KTS
Visibility
1 SM
Flight Rules
IFR
Conditions
Heavy Rain, Mist
Cloud Levels
  • Few at 200' AGL
  • Scattered at 800' AGL
  • Overcast at 2,000' AGL
Temperature
18°C / 64°F
Dewpoint
18°C / 64°F
Humidity
100%
Altimeter
29.84" Hg
Pressure
1010.52 hPa